sensor_id;sensor_type;location;lat;lon;timestamp;P1;durP1;ratioP1;P2;durP2;ratioP2
11016;SDS011;54687;50.800;6.772;2023-03-14T00:01:44;6.05;;;2.95;;
11016;SDS011;54687;50.800;6.772;2023-03-14T00:04:11;5.28;;;2.90;;
11016;SDS011;54687;50.800;6.772;2023-03-14T00:06:37;5.53;;;2.30;;
11016;SDS011;54687;50.800;6.772;2023-03-14T00:09:04;5.18;;;2.78;;
11016;SDS011;54687;50.800;6.772;2023-03-14T00:11:31;8.35;;;2.50;;
11016;SDS011;54687;50.800;6.772;2023-03-14T00:13:57;5.72;;;2.35;;
11016;SDS011;54687;50.800;6.772;2023-03-14T00:16:25;3.95;;;2.70;;
11016;SDS011;54687;50.800;6.772;2023-03-14T00:18:53;5.90;;;2.50;;
11016;SDS011;54687;50.800;6.772;2023-03-14T00:21:20;6.38;;;2.50;;
11016;SDS011;54687;50.800;6.772;2023-03-14T00:23:46;4.55;;;2.63;;
11016;SDS011;54687;50.800;6.772;2023-03-14T00:26:14;8.25;;;2.90;;
11016;SDS011;54687;50.800;6.772;2023-03-14T00:28:42;5.13;;;2.40;;
11016;SDS011;54687;50.800;6.772;2023-03-14T00:31:10;5.97;;;3.00;;
11016;SDS011;54687;50.800;6.772;2023-03-14T00:33:38;4.07;;;2.30;;
11016;SDS011;54687;50.800;6.772;2023-03-14T00:36:07;5.35;;;2.38;;
11016;SDS011;54687;50.800;6.772;2023-03-14T00:38:35;4.78;;;2.53;;
11016;SDS011;54687;50.800;6.772;2023-03-14T00:41:03;6.35;;;2.85;;
11016;SDS011;54687;50.800;6.772;2023-03-14T00:43:31;6.30;;;2.63;;
11016;SDS011;54687;50.800;6.772;2023-03-14T00:45:57;7.03;;;2.50;;
11016;SDS011;54687;50.800;6.772;2023-03-14T00:48:24;4.53;;;1.92;;
11016;SDS011;54687;50.800;6.772;2023-03-14T00:50:51;4.70;;;2.45;;
11016;SDS011;54687;50.800;6.772;2023-03-14T00:53:19;4.18;;;2.20;;
11016;SDS011;54687;50.800;6.772;2023-03-14T00:55:45;4.07;;;2.00;;
11016;SDS011;54687;50.800;6.772;2023-03-14T00:58:13;4.93;;;2.10;;
11016;SDS011;54687;50.800;6.772;2023-03-14T01:00:41;5.07;;;2.30;;
11016;SDS011;54687;50.800;6.772;2023-03-14T01:03:09;7.07;;;2.38;;
11016;SDS011;54687;50.800;6.772;2023-03-14T01:05:37;7.40;;;2.60;;
11016;SDS011;54687;50.800;6.772;2023-03-14T01:08:04;6.45;;;2.65;;
11016;SDS011;54687;50.800;6.772;2023-03-14T01:10:33;5.60;;;2.33;;
11016;SDS011;54687;50.800;6.772;2023-03-14T01:13:00;5.28;;;2.20;;
11016;SDS011;54687;50.800;6.772;2023-03-14T01:15:27;5.07;;;2.50;;
11016;SDS011;54687;50.800;6.772;2023-03-14T01:17:53;6.45;;;2.50;;
11016;SDS011;54687;50.800;6.772;2023-03-14T01:20:20;7.35;;;2.63;;
11016;SDS011;54687;50.800;6.772;2023-03-14T01:22:46;5.85;;;2.20;;
11016;SDS011;54687;50.800;6.772;2023-03-14T01:25:14;5.45;;;2.35;;
11016;SDS011;54687;50.800;6.772;2023-03-14T01:27:43;5.57;;;1.98;;
11016;SDS011;54687;50.800;6.772;2023-03-14T01:30:10;3.50;;;1.58;;
11016;SDS011;54687;50.800;6.772;2023-03-14T01:32:39;4.45;;;1.92;;
11016;SDS011;54687;50.800;6.772;2023-03-14T01:35:06;4.68;;;1.90;;
11016;SDS011;54687;50.800;6.772;2023-03-14T01:37:33;2.58;;;1.50;;
11016;SDS011;54687;50.800;6.772;2023-03-14T01:40:00;3.22;;;1.58;;
11016;SDS011;54687;50.800;6.772;2023-03-14T01:42:28;3.90;;;1.52;;
11016;SDS011;54687;50.800;6.772;2023-03-14T01:44:56;2.53;;;1.75;;
11016;SDS011;54687;50.800;6.772;2023-03-14T01:47:24;2.22;;;1.50;;
11016;SDS011;54687;50.800;6.772;2023-03-14T01:49:52;6.13;;;1.77;;
11016;SDS011;54687;50.800;6.772;2023-03-14T01:52:23;2.70;;;1.52;;
11016;SDS011;54687;50.800;6.772;2023-03-14T01:54:52;3.13;;;1.90;;
11016;SDS011;54687;50.800;6.772;2023-03-14T01:57:25;2.28;;;1.50;;
11016;SDS011;54687;50.800;6.772;2023-03-14T01:59:58;1.70;;;1.40;;
11016;SDS011;54687;50.800;6.772;2023-03-14T02:02:33;2.40;;;1.30;;
11016;SDS011;54687;50.800;6.772;2023-03-14T02:05:00;3.83;;;2.05;;
11016;SDS011;54687;50.800;6.772;2023-03-14T02:07:30;3.50;;;1.85;;
11016;SDS011;54687;50.800;6.772;2023-03-14T02:10:01;2.42;;;1.48;;
11016;SDS011;54687;50.800;6.772;2023-03-14T02:12:30;3.22;;;1.48;;
11016;SDS011;54687;50.800;6.772;2023-03-14T02:14:59;2.72;;;1.88;;
11016;SDS011;54687;50.800;6.772;2023-03-14T02:17:25;2.28;;;1.23;;
11016;SDS011;54687;50.800;6.772;2023-03-14T02:19:57;2.42;;;1.30;;
11016;SDS011;54687;50.800;6.772;2023-03-14T02:22:35;1.73;;;1.00;;
11016;SDS011;54687;50.800;6.772;2023-03-14T02:25:06;2.25;;;1.13;;
11016;SDS011;54687;50.800;6.772;2023-03-14T02:27:37;2.95;;;0.95;;
11016;SDS011;54687;50.800;6.772;2023-03-14T02:30:05;4.72;;;1.42;;
11016;SDS011;54687;50.800;6.772;2023-03-14T02:32:35;2.58;;;1.08;;
11016;SDS011;54687;50.800;6.772;2023-03-14T02:35:05;1.98;;;1.17;;
11016;SDS011;54687;50.800;6.772;2023-03-14T02:37:36;2.53;;;1.35;;
11016;SDS011;54687;50.800;6.772;2023-03-14T02:40:07;2.67;;;1.40;;
11016;SDS011;54687;50.800;6.772;2023-03-14T02:42:34;4.03;;;1.50;;
11016;SDS011;54687;50.800;6.772;2023-03-14T02:47:59;4.60;;;1.70;;
11016;SDS011;54687;50.800;6.772;2023-03-14T02:50:31;3.00;;;1.70;;
11016;SDS011;54687;50.800;6.772;2023-03-14T02:53:00;3.85;;;1.58;;
11016;SDS011;54687;50.800;6.772;2023-03-14T02:55:26;5.40;;;2.00;;
11016;SDS011;54687;50.800;6.772;2023-03-14T02:57:54;6.82;;;2.05;;
11016;SDS011;54687;50.800;6.772;2023-03-14T03:00:21;6.82;;;2.53;;
11016;SDS011;54687;50.800;6.772;2023-03-14T03:02:47;6.85;;;2.33;;
11016;SDS011;54687;50.800;6.772;2023-03-14T03:05:14;6.70;;;2.72;;
11016;SDS011;54687;50.800;6.772;2023-03-14T03:07:40;7.30;;;2.80;;
11016;SDS011;54687;50.800;6.772;2023-03-14T03:10:08;7.55;;;2.50;;
11016;SDS011;54687;50.800;6.772;2023-03-14T03:12:35;5.70;;;2.25;;
11016;SDS011;54687;50.800;6.772;2023-03-14T03:15:03;6.68;;;2.38;;
11016;SDS011;54687;50.800;6.772;2023-03-14T03:17:30;8.55;;;2.65;;
11016;SDS011;54687;50.800;6.772;2023-03-14T03:19:57;4.75;;;2.20;;
11016;SDS011;54687;50.800;6.772;2023-03-14T03:22:23;4.20;;;2.00;;
11016;SDS011;54687;50.800;6.772;2023-03-14T03:24:50;6.35;;;2.63;;
11016;SDS011;54687;50.800;6.772;2023-03-14T03:27:16;7.47;;;2.60;;
11016;SDS011;54687;50.800;6.772;2023-03-14T03:29:43;7.18;;;2.58;;
11016;SDS011;54687;50.800;6.772;2023-03-14T03:32:11;6.40;;;2.50;;
11016;SDS011;54687;50.800;6.772;2023-03-14T03:34:37;6.78;;;2.40;;
11016;SDS011;54687;50.800;6.772;2023-03-14T03:37:04;8.82;;;2.53;;
11016;SDS011;54687;50.800;6.772;2023-03-14T03:39:30;7.97;;;2.75;;
11016;SDS011;54687;50.800;6.772;2023-03-14T03:41:57;5.05;;;2.13;;
11016;SDS011;54687;50.800;6.772;2023-03-14T03:44:24;9.23;;;2.58;;
11016;SDS011;54687;50.800;6.772;2023-03-14T03:46:50;4.38;;;2.08;;
11016;SDS011;54687;50.800;6.772;2023-03-14T03:49:18;3.55;;;1.73;;
11016;SDS011;54687;50.800;6.772;2023-03-14T03:51:45;5.45;;;2.00;;
11016;SDS011;54687;50.800;6.772;2023-03-14T03:54:11;4.07;;;1.85;;
11016;SDS011;54687;50.800;6.772;2023-03-14T03:56:38;4.45;;;1.88;;
11016;SDS011;54687;50.800;6.772;2023-03-14T03:59:05;3.53;;;1.50;;
11016;SDS011;54687;50.800;6.772;2023-03-14T04:01:31;4.53;;;1.60;;
11016;SDS011;54687;50.800;6.772;2023-03-14T04:03:58;2.97;;;1.60;;
11016;SDS011;54687;50.800;6.772;2023-03-14T04:06:26;5.82;;;1.80;;
11016;SDS011;54687;50.800;6.772;2023-03-14T04:08:53;3.22;;;1.50;;
11016;SDS011;54687;50.800;6.772;2023-03-14T04:11:20;3.47;;;1.58;;
11016;SDS011;54687;50.800;6.772;2023-03-14T04:13:46;1.65;;;1.10;;
11016;SDS011;54687;50.800;6.772;2023-03-14T04:16:14;2.80;;;1.30;;
11016;SDS011;54687;50.800;6.772;2023-03-14T04:18:42;3.45;;;1.90;;
11016;SDS011;54687;50.800;6.772;2023-03-14T04:21:09;4.18;;;1.77;;
11016;SDS011;54687;50.800;6.772;2023-03-14T04:23:37;3.35;;;1.48;;
11016;SDS011;54687;50.800;6.772;2023-03-14T04:26:03;4.40;;;1.42;;
11016;SDS011;54687;50.800;6.772;2023-03-14T04:28:30;2.55;;;1.27;;
11016;SDS011;54687;50.800;6.772;2023-03-14T04:30:57;3.50;;;1.23;;
11016;SDS011;54687;50.800;6.772;2023-03-14T04:33:24;4.00;;;1.40;;
11016;SDS011;54687;50.800;6.772;2023-03-14T04:35:52;2.42;;;1.30;;
11016;SDS011;54687;50.800;6.772;2023-03-14T04:38:19;2.47;;;1.27;;
11016;SDS011;54687;50.800;6.772;2023-03-14T04:40:47;3.10;;;1.10;;
11016;SDS011;54687;50.800;6.772;2023-03-14T04:43:14;3.83;;;1.27;;
11016;SDS011;54687;50.800;6.772;2023-03-14T04:45:41;2.33;;;1.08;;
11016;SDS011;54687;50.800;6.772;2023-03-14T04:48:08;4.25;;;1.55;;
11016;SDS011;54687;50.800;6.772;2023-03-14T04:50:35;2.45;;;1.13;;
11016;SDS011;54687;50.800;6.772;2023-03-14T04:53:02;2.92;;;1.10;;
11016;SDS011;54687;50.800;6.772;2023-03-14T04:55:28;1.95;;;1.15;;
11016;SDS011;54687;50.800;6.772;2023-03-14T04:57:56;2.67;;;1.13;;
11016;SDS011;54687;50.800;6.772;2023-03-14T05:00:23;1.85;;;0.80;;
11016;SDS011;54687;50.800;6.772;2023-03-14T05:02:50;1.45;;;0.70;;
11016;SDS011;54687;50.800;6.772;2023-03-14T05:05:17;2.13;;;0.75;;
11016;SDS011;54687;50.800;6.772;2023-03-14T05:07:43;1.60;;;0.88;;
11016;SDS011;54687;50.800;6.772;2023-03-14T05:10:10;1.40;;;0.90;;
11016;SDS011;54687;50.800;6.772;2023-03-14T05:12:37;0.55;;;0.30;;
11016;SDS011;54687;50.800;6.772;2023-03-14T05:15:06;0.88;;;0.40;;
11016;SDS011;54687;50.800;6.772;2023-03-14T05:17:34;0.88;;;0.50;;
11016;SDS011;54687;50.800;6.772;2023-03-14T05:20:01;0.60;;;0.35;;
11016;SDS011;54687;50.800;6.772;2023-03-14T05:22:46;1.02;;;0.30;;
11016;SDS011;54687;50.800;6.772;2023-03-14T05:25:13;0.57;;;0.30;;
11016;SDS011;54687;50.800;6.772;2023-03-14T05:27:39;0.75;;;0.47;;
11016;SDS011;54687;50.800;6.772;2023-03-14T05:30:09;1.98;;;0.40;;
11016;SDS011;54687;50.800;6.772;2023-03-14T05:32:36;0.40;;;0.40;;
11016;SDS011;54687;50.800;6.772;2023-03-14T05:35:03;0.47;;;0.43;;
11016;SDS011;54687;50.800;6.772;2023-03-14T05:37:30;0.55;;;0.50;;
11016;SDS011;54687;50.800;6.772;2023-03-14T05:39:57;0.57;;;0.40;;
11016;SDS011;54687;50.800;6.772;2023-03-14T05:42:24;1.08;;;0.55;;
11016;SDS011;54687;50.800;6.772;2023-03-14T05:44:50;0.55;;;0.50;;
11016;SDS011;54687;50.800;6.772;2023-03-14T05:47:18;0.47;;;0.40;;
11016;SDS011;54687;50.800;6.772;2023-03-14T05:49:45;1.90;;;0.93;;
11016;SDS011;54687;50.800;6.772;2023-03-14T05:52:12;0.85;;;0.85;;
11016;SDS011;54687;50.800;6.772;2023-03-14T05:54:38;0.40;;;0.40;;
11016;SDS011;54687;50.800;6.772;2023-03-14T05:57:06;0.55;;;0.20;;
11016;SDS011;54687;50.800;6.772;2023-03-14T05:59:33;0.65;;;0.25;;
11016;SDS011;54687;50.800;6.772;2023-03-14T06:02:00;0.22;;;0.22;;
11016;SDS011;54687;50.800;6.772;2023-03-14T06:04:28;1.33;;;0.70;;
11016;SDS011;54687;50.800;6.772;2023-03-14T06:06:56;1.63;;;0.40;;
11016;SDS011;54687;50.800;6.772;2023-03-14T06:09:23;0.52;;;0.52;;
11016;SDS011;54687;50.800;6.772;2023-03-14T06:11:50;1.02;;;0.38;;
11016;SDS011;54687;50.800;6.772;2023-03-14T06:14:16;1.23;;;1.13;;
11016;SDS011;54687;50.800;6.772;2023-03-14T06:16:43;0.35;;;0.35;;
11016;SDS011;54687;50.800;6.772;2023-03-14T06:19:10;0.73;;;0.43;;
11016;SDS011;54687;50.800;6.772;2023-03-14T06:21:38;0.98;;;0.45;;
11016;SDS011;54687;50.800;6.772;2023-03-14T06:24:08;1.60;;;0.75;;
11016;SDS011;54687;50.800;6.772;2023-03-14T06:26:35;3.38;;;1.13;;
11016;SDS011;54687;50.800;6.772;2023-03-14T06:29:01;2.13;;;1.13;;
11016;SDS011;54687;50.800;6.772;2023-03-14T06:31:28;0.20;;;0.20;;
11016;SDS011;54687;50.800;6.772;2023-03-14T06:33:55;0.75;;;0.30;;
11016;SDS011;54687;50.800;6.772;2023-03-14T06:36:21;0.25;;;0.17;;
11016;SDS011;54687;50.800;6.772;2023-03-14T06:38:49;0.25;;;0.25;;
11016;SDS011;54687;50.800;6.772;2023-03-14T06:41:16;0.85;;;0.68;;
11016;SDS011;54687;50.800;6.772;2023-03-14T06:43:43;0.70;;;0.30;;
11016;SDS011;54687;50.800;6.772;2023-03-14T06:46:10;1.20;;;0.70;;
11016;SDS011;54687;50.800;6.772;2023-03-14T06:48:36;0.13;;;0.13;;
11016;SDS011;54687;50.800;6.772;2023-03-14T06:51:03;1.00;;;0.52;;
11016;SDS011;54687;50.800;6.772;2023-03-14T06:53:30;0.50;;;0.40;;
11016;SDS011;54687;50.800;6.772;2023-03-14T06:55:57;0.75;;;0.60;;
11016;SDS011;54687;50.800;6.772;2023-03-14T06:58:25;0.50;;;0.50;;
11016;SDS011;54687;50.800;6.772;2023-03-14T07:00:52;0.40;;;0.40;;
11016;SDS011;54687;50.800;6.772;2023-03-14T07:03:19;3.25;;;0.70;;
11016;SDS011;54687;50.800;6.772;2023-03-14T07:05:46;2.38;;;0.73;;
11016;SDS011;54687;50.800;6.772;2023-03-14T07:08:13;0.98;;;0.35;;
11016;SDS011;54687;50.800;6.772;2023-03-14T07:10:40;1.40;;;0.47;;
11016;SDS011;54687;50.800;6.772;2023-03-14T07:13:07;0.40;;;0.40;;
11016;SDS011;54687;50.800;6.772;2023-03-14T07:15:34;1.55;;;0.73;;
11016;SDS011;54687;50.800;6.772;2023-03-14T07:18:01;0.65;;;0.50;;
11016;SDS011;54687;50.800;6.772;2023-03-14T07:20:28;0.28;;;0.28;;
11016;SDS011;54687;50.800;6.772;2023-03-14T07:22:59;0.40;;;0.30;;
11016;SDS011;54687;50.800;6.772;2023-03-14T07:25:28;2.55;;;0.65;;
11016;SDS011;54687;50.800;6.772;2023-03-14T07:27:54;0.88;;;0.43;;
11016;SDS011;54687;50.800;6.772;2023-03-14T07:30:22;2.13;;;0.88;;
11016;SDS011;54687;50.800;6.772;2023-03-14T07:32:49;0.43;;;0.30;;
11016;SDS011;54687;50.800;6.772;2023-03-14T07:35:15;2.75;;;0.73;;
11016;SDS011;54687;50.800;6.772;2023-03-14T07:37:42;1.98;;;0.50;;
11016;SDS011;54687;50.800;6.772;2023-03-14T07:40:09;0.90;;;0.43;;
11016;SDS011;54687;50.800;6.772;2023-03-14T07:42:39;0.60;;;0.32;;
11016;SDS011;54687;50.800;6.772;2023-03-14T07:45:07;0.38;;;0.38;;
11016;SDS011;54687;50.800;6.772;2023-03-14T07:47:35;1.15;;;0.50;;
11016;SDS011;54687;50.800;6.772;2023-03-14T07:50:02;0.30;;;0.30;;
11016;SDS011;54687;50.800;6.772;2023-03-14T07:52:30;1.50;;;0.90;;
11016;SDS011;54687;50.800;6.772;2023-03-14T07:54:57;0.32;;;0.32;;
11016;SDS011;54687;50.800;6.772;2023-03-14T07:57:23;0.32;;;0.32;;
11016;SDS011;54687;50.800;6.772;2023-03-14T07:59:50;2.15;;;0.60;;
11016;SDS011;54687;50.800;6.772;2023-03-14T08:02:16;0.88;;;0.60;;
11016;SDS011;54687;50.800;6.772;2023-03-14T08:04:48;1.40;;;0.50;;
11016;SDS011;54687;50.800;6.772;2023-03-14T08:07:15;1.42;;;0.60;;
11016;SDS011;54687;50.800;6.772;2023-03-14T08:09:41;1.35;;;0.40;;
11016;SDS011;54687;50.800;6.772;2023-03-14T08:12:08;0.47;;;0.47;;
11016;SDS011;54687;50.800;6.772;2023-03-14T08:14:34;1.88;;;0.43;;
11016;SDS011;54687;50.800;6.772;2023-03-14T08:17:01;0.80;;;0.20;;
11016;SDS011;54687;50.800;6.772;2023-03-14T08:19:27;0.30;;;0.28;;
11016;SDS011;54687;50.800;6.772;2023-03-14T08:21:56;1.75;;;1.65;;
11016;SDS011;54687;50.800;6.772;2023-03-14T08:24:22;3.78;;;1.13;;
11016;SDS011;54687;50.800;6.772;2023-03-14T08:26:49;2.05;;;0.70;;
11016;SDS011;54687;50.800;6.772;2023-03-14T08:29:15;2.28;;;0.93;;
11016;SDS011;54687;50.800;6.772;2023-03-14T08:31:42;0.30;;;0.30;;
11016;SDS011;54687;50.800;6.772;2023-03-14T08:34:09;0.82;;;0.55;;
11016;SDS011;54687;50.800;6.772;2023-03-14T08:36:36;0.57;;;0.52;;
11016;SDS011;54687;50.800;6.772;2023-03-14T08:39:04;0.73;;;0.60;;
11016;SDS011;54687;50.800;6.772;2023-03-14T08:41:33;0.50;;;0.50;;
11016;SDS011;54687;50.800;6.772;2023-03-14T08:44:05;0.85;;;0.80;;
11016;SDS011;54687;50.800;6.772;2023-03-14T08:46:31;0.63;;;0.50;;
11016;SDS011;54687;50.800;6.772;2023-03-14T08:48:58;0.45;;;0.45;;
11016;SDS011;54687;50.800;6.772;2023-03-14T08:51:24;0.95;;;0.80;;
11016;SDS011;54687;50.800;6.772;2023-03-14T08:53:51;0.85;;;0.60;;
11016;SDS011;54687;50.800;6.772;2023-03-14T08:56:19;0.55;;;0.50;;
11016;SDS011;54687;50.800;6.772;2023-03-14T08:58:46;0.63;;;0.63;;
11016;SDS011;54687;50.800;6.772;2023-03-14T09:01:12;0.93;;;0.90;;
11016;SDS011;54687;50.800;6.772;2023-03-14T09:03:39;0.75;;;0.75;;
11016;SDS011;54687;50.800;6.772;2023-03-14T09:06:06;0.85;;;0.85;;
11016;SDS011;54687;50.800;6.772;2023-03-14T09:08:34;0.50;;;0.50;;
11016;SDS011;54687;50.800;6.772;2023-03-14T09:11:01;0.98;;;0.70;;
11016;SDS011;54687;50.800;6.772;2023-03-14T09:13:29;0.80;;;0.63;;
11016;SDS011;54687;50.800;6.772;2023-03-14T09:15:55;0.60;;;0.60;;
11016;SDS011;54687;50.800;6.772;2023-03-14T09:18:22;0.68;;;0.55;;
11016;SDS011;54687;50.800;6.772;2023-03-14T09:20:49;0.50;;;0.47;;
11016;SDS011;54687;50.800;6.772;2023-03-14T09:23:16;0.50;;;0.50;;
11016;SDS011;54687;50.800;6.772;2023-03-14T09:25:42;0.68;;;0.60;;
11016;SDS011;54687;50.800;6.772;2023-03-14T09:28:09;0.80;;;0.80;;
11016;SDS011;54687;50.800;6.772;2023-03-14T09:30:38;1.55;;;0.75;;
11016;SDS011;54687;50.800;6.772;2023-03-14T09:33:04;4.13;;;1.58;;
11016;SDS011;54687;50.800;6.772;2023-03-14T09:35:33;2.17;;;1.10;;
11016;SDS011;54687;50.800;6.772;2023-03-14T09:37:59;2.78;;;1.60;;
11016;SDS011;54687;50.800;6.772;2023-03-14T09:40:27;1.17;;;1.17;;
11016;SDS011;54687;50.800;6.772;2023-03-14T09:42:59;1.58;;;1.40;;
11016;SDS011;54687;50.800;6.772;2023-03-14T09:45:26;1.48;;;1.38;;
11016;SDS011;54687;50.800;6.772;2023-03-14T09:47:57;1.55;;;1.45;;
11016;SDS011;54687;50.800;6.772;2023-03-14T09:50:25;1.40;;;1.30;;
11016;SDS011;54687;50.800;6.772;2023-03-14T09:52:55;1.50;;;1.40;;
11016;SDS011;54687;50.800;6.772;2023-03-14T09:55:25;2.20;;;1.45;;
11016;SDS011;54687;50.800;6.772;2023-03-14T09:57:54;2.35;;;1.40;;
11016;SDS011;54687;50.800;6.772;2023-03-14T10:00:25;2.30;;;1.27;;
11016;SDS011;54687;50.800;6.772;2023-03-14T10:02:54;1.52;;;0.90;;
11016;SDS011;54687;50.800;6.772;2023-03-14T10:05:24;3.35;;;1.38;;
11016;SDS011;54687;50.800;6.772;2023-03-14T10:07:53;1.13;;;1.02;;
11016;SDS011;54687;50.800;6.772;2023-03-14T10:10:20;1.20;;;1.20;;
11016;SDS011;54687;50.800;6.772;2023-03-14T10:12:54;1.13;;;1.13;;
11016;SDS011;54687;50.800;6.772;2023-03-14T10:15:24;1.65;;;1.27;;
11016;SDS011;54687;50.800;6.772;2023-03-14T10:17:54;1.92;;;1.20;;
11016;SDS011;54687;50.800;6.772;2023-03-14T10:20:29;1.10;;;0.95;;
11016;SDS011;54687;50.800;6.772;2023-03-14T10:23:01;1.25;;;1.05;;
11016;SDS011;54687;50.800;6.772;2023-03-14T10:25:31;1.55;;;0.95;;
11016;SDS011;54687;50.800;6.772;2023-03-14T10:27:59;3.30;;;1.30;;
11016;SDS011;54687;50.800;6.772;2023-03-14T10:30:27;1.85;;;1.20;;
11016;SDS011;54687;50.800;6.772;2023-03-14T10:32:59;1.42;;;1.13;;
11016;SDS011;54687;50.800;6.772;2023-03-14T10:35:35;2.65;;;1.63;;
11016;SDS011;54687;50.800;6.772;2023-03-14T10:38:03;1.55;;;1.45;;
11016;SDS011;54687;50.800;6.772;2023-03-14T10:40:30;1.30;;;1.20;;
11016;SDS011;54687;50.800;6.772;2023-03-14T10:42:59;1.73;;;1.20;;
11016;SDS011;54687;50.800;6.772;2023-03-14T10:45:31;1.33;;;1.23;;
11016;SDS011;54687;50.800;6.772;2023-03-14T10:48:06;1.20;;;1.10;;
11016;SDS011;54687;50.800;6.772;2023-03-14T10:50:49;2.20;;;1.45;;
11016;SDS011;54687;50.800;6.772;2023-03-14T10:53:21;2.17;;;1.30;;
11016;SDS011;54687;50.800;6.772;2023-03-14T10:55:48;1.80;;;1.27;;
11016;SDS011;54687;50.800;6.772;2023-03-14T10:58:18;1.95;;;1.52;;
11016;SDS011;54687;50.800;6.772;2023-03-14T11:00:47;1.73;;;1.30;;
11016;SDS011;54687;50.800;6.772;2023-03-14T11:03:18;1.55;;;1.45;;
11016;SDS011;54687;50.800;6.772;2023-03-14T11:05:46;3.22;;;1.80;;
11016;SDS011;54687;50.800;6.772;2023-03-14T11:08:20;1.42;;;1.15;;
11016;SDS011;54687;50.800;6.772;2023-03-14T11:10:52;1.67;;;1.40;;
11016;SDS011;54687;50.800;6.772;2023-03-14T11:13:22;1.75;;;1.20;;
11016;SDS011;54687;50.800;6.772;2023-03-14T11:15:53;1.92;;;1.40;;
11016;SDS011;54687;50.800;6.772;2023-03-14T11:18:36;2.30;;;2.00;;
11016;SDS011;54687;50.800;6.772;2023-03-14T11:21:17;2.50;;;1.58;;
11016;SDS011;54687;50.800;6.772;2023-03-14T11:23:49;1.98;;;1.35;;
11016;SDS011;54687;50.800;6.772;2023-03-14T11:26:31;1.60;;;1.50;;
11016;SDS011;54687;50.800;6.772;2023-03-14T11:29:08;1.58;;;1.20;;
11016;SDS011;54687;50.800;6.772;2023-03-14T11:31:44;3.65;;;1.73;;
11016;SDS011;54687;50.800;6.772;2023-03-14T11:34:14;3.55;;;1.67;;
11016;SDS011;54687;50.800;6.772;2023-03-14T11:36:46;2.08;;;1.15;;
11016;SDS011;54687;50.800;6.772;2023-03-14T11:39:20;1.65;;;1.30;;
11016;SDS011;54687;50.800;6.772;2023-03-14T11:41:47;1.95;;;1.58;;
11016;SDS011;54687;50.800;6.772;2023-03-14T11:44:17;2.03;;;1.40;;
11016;SDS011;54687;50.800;6.772;2023-03-14T11:46:47;2.28;;;1.73;;
11016;SDS011;54687;50.800;6.772;2023-03-14T11:49:21;1.92;;;1.42;;
11016;SDS011;54687;50.800;6.772;2023-03-14T11:52:00;3.20;;;1.90;;
11016;SDS011;54687;50.800;6.772;2023-03-14T11:54:34;1.85;;;1.50;;
11016;SDS011;54687;50.800;6.772;2023-03-14T11:57:11;1.48;;;1.10;;
11016;SDS011;54687;50.800;6.772;2023-03-14T11:59:42;1.23;;;1.08;;
11016;SDS011;54687;50.800;6.772;2023-03-14T12:02:17;4.10;;;1.30;;
11016;SDS011;54687;50.800;6.772;2023-03-14T12:04:53;1.30;;;1.20;;
11016;SDS011;54687;50.800;6.772;2023-03-14T12:07:48;1.33;;;1.10;;
11016;SDS011;54687;50.800;6.772;2023-03-14T12:10:40;0.85;;;0.85;;
11016;SDS011;54687;50.800;6.772;2023-03-14T12:13:13;0.98;;;0.98;;
11016;SDS011;54687;50.800;6.772;2023-03-14T12:15:49;1.50;;;1.40;;
11016;SDS011;54687;50.800;6.772;2023-03-14T12:18:21;2.45;;;1.27;;
11016;SDS011;54687;50.800;6.772;2023-03-14T12:20:54;1.77;;;1.35;;
11016;SDS011;54687;50.800;6.772;2023-03-14T12:23:24;3.33;;;1.58;;
11016;SDS011;54687;50.800;6.772;2023-03-14T12:26:06;2.28;;;1.58;;
11016;SDS011;54687;50.800;6.772;2023-03-14T12:28:39;3.42;;;1.90;;
11016;SDS011;54687;50.800;6.772;2023-03-14T12:37:14;5.22;;;2.20;;
11016;SDS011;54687;50.800;6.772;2023-03-14T12:39:53;3.00;;;2.10;;
11016;SDS011;54687;50.800;6.772;2023-03-14T12:42:38;6.22;;;2.00;;
11016;SDS011;54687;50.800;6.772;2023-03-14T12:45:14;4.75;;;2.28;;
11016;SDS011;54687;50.800;6.772;2023-03-14T12:48:00;12.68;;;2.80;;
11016;SDS011;54687;50.800;6.772;2023-03-14T12:50:32;3.10;;;2.30;;
11016;SDS011;54687;50.800;6.772;2023-03-14T12:55:59;3.30;;;2.33;;
11016;SDS011;54687;50.800;6.772;2023-03-14T12:58:34;3.03;;;1.92;;
11016;SDS011;54687;50.800;6.772;2023-03-14T13:01:05;2.30;;;2.00;;
11016;SDS011;54687;50.800;6.772;2023-03-14T13:03:43;3.25;;;1.98;;
11016;SDS011;54687;50.800;6.772;2023-03-14T13:06:12;7.13;;;2.03;;
11016;SDS011;54687;50.800;6.772;2023-03-14T13:08:40;3.83;;;2.47;;
11016;SDS011;54687;50.800;6.772;2023-03-14T13:11:10;2.03;;;1.83;;
11016;SDS011;54687;50.800;6.772;2023-03-14T13:13:41;8.05;;;2.90;;
11016;SDS011;54687;50.800;6.772;2023-03-14T13:16:12;7.93;;;2.60;;
11016;SDS011;54687;50.800;6.772;2023-03-14T13:18:43;6.05;;;2.35;;
11016;SDS011;54687;50.800;6.772;2023-03-14T13:21:12;3.38;;;2.03;;
11016;SDS011;54687;50.800;6.772;2023-03-14T13:23:53;5.30;;;2.45;;
11016;SDS011;54687;50.800;6.772;2023-03-14T13:26:23;3.78;;;2.13;;
11016;SDS011;54687;50.800;6.772;2023-03-14T13:28:51;5.38;;;2.83;;
11016;SDS011;54687;50.800;6.772;2023-03-14T13:31:21;3.50;;;2.20;;
11016;SDS011;54687;50.800;6.772;2023-03-14T13:33:59;3.22;;;1.70;;
11016;SDS011;54687;50.800;6.772;2023-03-14T13:36:27;7.07;;;3.22;;
11016;SDS011;54687;50.800;6.772;2023-03-14T13:38:57;6.40;;;2.10;;
11016;SDS011;54687;50.800;6.772;2023-03-14T13:41:26;6.97;;;3.05;;
11016;SDS011;54687;50.800;6.772;2023-03-14T13:43:56;5.03;;;2.45;;
11016;SDS011;54687;50.800;6.772;2023-03-14T13:46:29;6.45;;;3.20;;
11016;SDS011;54687;50.800;6.772;2023-03-14T13:49:00;6.68;;;2.38;;
11016;SDS011;54687;50.800;6.772;2023-03-14T13:51:28;8.57;;;2.72;;
11016;SDS011;54687;50.800;6.772;2023-03-14T13:53:57;8.48;;;2.72;;
11016;SDS011;54687;50.800;6.772;2023-03-14T13:56:25;10.02;;;3.88;;
11016;SDS011;54687;50.800;6.772;2023-03-14T13:58:55;11.52;;;4.13;;
11016;SDS011;54687;50.800;6.772;2023-03-14T14:01:22;8.82;;;3.90;;
11016;SDS011;54687;50.800;6.772;2023-03-14T14:03:52;10.75;;;4.03;;
11016;SDS011;54687;50.800;6.772;2023-03-14T14:06:31;11.27;;;3.20;;
11016;SDS011;54687;50.800;6.772;2023-03-14T14:08:59;9.35;;;3.53;;
11016;SDS011;54687;50.800;6.772;2023-03-14T14:11:37;10.35;;;3.08;;
11016;SDS011;54687;50.800;6.772;2023-03-14T14:14:10;9.40;;;3.00;;
11016;SDS011;54687;50.800;6.772;2023-03-14T14:16:41;8.88;;;3.35;;
11016;SDS011;54687;50.800;6.772;2023-03-14T14:19:10;12.20;;;3.38;;
11016;SDS011;54687;50.800;6.772;2023-03-14T14:21:39;13.32;;;4.03;;
11016;SDS011;54687;50.800;6.772;2023-03-14T14:24:07;7.75;;;3.08;;
11016;SDS011;54687;50.800;6.772;2023-03-14T14:26:37;12.85;;;3.63;;
11016;SDS011;54687;50.800;6.772;2023-03-14T14:29:16;11.65;;;3.20;;
11016;SDS011;54687;50.800;6.772;2023-03-14T14:31:59;10.88;;;3.20;;
11016;SDS011;54687;50.800;6.772;2023-03-14T14:34:26;11.43;;;3.53;;
11016;SDS011;54687;50.800;6.772;2023-03-14T14:36:53;9.75;;;2.88;;
11016;SDS011;54687;50.800;6.772;2023-03-14T14:39:20;9.85;;;3.08;;
11016;SDS011;54687;50.800;6.772;2023-03-14T14:41:50;8.55;;;2.90;;
11016;SDS011;54687;50.800;6.772;2023-03-14T14:44:20;10.55;;;3.42;;
11016;SDS011;54687;50.800;6.772;2023-03-14T14:46:54;8.48;;;2.88;;
11016;SDS011;54687;50.800;6.772;2023-03-14T14:49:27;10.80;;;3.15;;
11016;SDS011;54687;50.800;6.772;2023-03-14T14:51:59;10.32;;;3.95;;
11016;SDS011;54687;50.800;6.772;2023-03-14T14:54:33;9.05;;;3.05;;
11016;SDS011;54687;50.800;6.772;2023-03-14T14:57:03;13.25;;;3.67;;
11016;SDS011;54687;50.800;6.772;2023-03-14T14:59:31;9.88;;;3.08;;
11016;SDS011;54687;50.800;6.772;2023-03-14T15:01:59;10.13;;;3.03;;
11016;SDS011;54687;50.800;6.772;2023-03-14T15:04:27;9.23;;;3.05;;
11016;SDS011;54687;50.800;6.772;2023-03-14T15:06:56;9.07;;;3.25;;
11016;SDS011;54687;50.800;6.772;2023-03-14T15:09:23;9.07;;;3.03;;
11016;SDS011;54687;50.800;6.772;2023-03-14T15:11:50;12.63;;;3.30;;